CheckWX is a tool to help pilots better visualize weather data.  It is not intended as a substitute for an official pre-flight weather briefing.

14:37:04 UTC

KAUO METAR
Auburn University Regional Airport
Auburn, Alabama, USA
Current

41 mins ago

KAUO 221356Z AUTO 00000KT 10SM CLR 19/08 A3024 RMK AO2 SLP259 T01940078
Observed
Apr-22 @ 13:56 UTC
Visibility
10 SM
Flight Rules
VFR
Cloud Levels
  • Clear skies
Temperature
19°C / 66°F
Dewpoint
C / 46°F
Humidity
49%
Altimeter
30.24" Hg
Pressure
1024.02 hPa
Previous

3 hours ago

KAUO 221156Z AUTO 00000KT 10SM CLR 11/11 A3022 RMK AO2 SLP255 T01110111 10117 20089 53014
Observed
Apr-22 @ 11:56 UTC
Visibility
10 SM
Flight Rules
VFR
Cloud Levels
  • Clear skies
Temperature
11°C / 52°F
Dewpoint
11°C / 52°F
Humidity
100%
Altimeter
30.22" Hg
Pressure
1023.42 hPa
Previous

4 hours ago

KAUO 221056Z AUTO 00000KT 10SM CLR 09/09 A3019 RMK AO2 SLP245 T00940094
Observed
Apr-22 @ 10:56 UTC
Visibility
10 SM
Flight Rules
VFR
Cloud Levels
  • Clear skies
Temperature
C / 48°F
Dewpoint
C / 48°F
Humidity
100%
Altimeter
30.19" Hg
Pressure
1022.32 hPa